Terminal Aerodrome Forecast
Issued by NWS

Home | Current Version | Previous Version | Graphics & Text | Print | Product List | Glossary On
Versions: 1 2 3 4 5 6 7 8 9 10 11 12 13 14 15 16 17 18 19 20 21 22
000
FTUS43 KABR 231100
TAFATY
TAF
KATY 231123Z 2312/2412 VRB05KT 2SM BR SCT001
      TEMPO 2312/2315 3/4SM BR VV001
     FM231700 21011KT P6SM SCT250
     FM240000 VRB05KT P6SM BKN250=

USA.gov is the U.S. government's official web portal to all federal, state and local government web resources and services.